sensor_id;sensor_type;location;lat;lon;timestamp;P1;durP1;ratioP1;P2;durP2;ratioP2
20421;SDS011;10370;53.102;18.034;2023-04-16T00:00:07;16.45;;;11.38;;
20421;SDS011;10370;53.102;18.034;2023-04-16T00:05:52;20.13;;;12.20;;
20421;SDS011;10370;53.102;18.034;2023-04-16T00:11:18;21.17;;;12.45;;
20421;SDS011;10370;53.102;18.034;2023-04-16T00:17:05;19.55;;;12.38;;
20421;SDS011;10370;53.102;18.034;2023-04-16T00:22:51;20.85;;;12.75;;
20421;SDS011;10370;53.102;18.034;2023-04-16T00:28:35;21.35;;;12.75;;
20421;SDS011;10370;53.102;18.034;2023-04-16T00:34:20;21.08;;;12.80;;
20421;SDS011;10370;53.102;18.034;2023-04-16T00:39:45;19.00;;;12.10;;
20421;SDS011;10370;53.102;18.034;2023-04-16T00:45:11;24.63;;;13.80;;
20421;SDS011;10370;53.102;18.034;2023-04-16T00:50:57;23.40;;;12.35;;
20421;SDS011;10370;53.102;18.034;2023-04-16T00:56:41;18.45;;;11.90;;
20421;SDS011;10370;53.102;18.034;2023-04-16T01:02:26;19.42;;;12.40;;
20421;SDS011;10370;53.102;18.034;2023-04-16T01:07:51;18.65;;;12.23;;
20421;SDS011;10370;53.102;18.034;2023-04-16T01:13:26;19.08;;;12.18;;
20421;SDS011;10370;53.102;18.034;2023-04-16T01:19:01;22.38;;;14.00;;
20421;SDS011;10370;53.102;18.034;2023-04-16T01:24:56;24.42;;;15.30;;
20421;SDS011;10370;53.102;18.034;2023-04-16T01:30:33;22.90;;;14.27;;
20421;SDS011;10370;53.102;18.034;2023-04-16T01:36:30;24.58;;;14.68;;
20421;SDS011;10370;53.102;18.034;2023-04-16T01:42:24;26.00;;;14.85;;
20421;SDS011;10370;53.102;18.034;2023-04-16T01:48:11;26.75;;;16.33;;
20421;SDS011;10370;53.102;18.034;2023-04-16T01:53:26;27.88;;;15.88;;
20421;SDS011;10370;53.102;18.034;2023-04-16T01:58:47;26.75;;;15.73;;
20421;SDS011;10370;53.102;18.034;2023-04-16T02:04:12;29.02;;;16.33;;
20421;SDS011;10370;53.102;18.034;2023-04-16T02:09:38;26.67;;;15.68;;
20421;SDS011;10370;53.102;18.034;2023-04-16T02:15:05;26.45;;;15.77;;
20421;SDS011;10370;53.102;18.034;2023-04-16T02:20:31;30.45;;;17.23;;
20421;SDS011;10370;53.102;18.034;2023-04-16T02:25:57;28.27;;;16.52;;
20421;SDS011;10370;53.102;18.034;2023-04-16T02:31:24;30.15;;;16.90;;
20421;SDS011;10370;53.102;18.034;2023-04-16T02:36:50;27.90;;;15.52;;
20421;SDS011;10370;53.102;18.034;2023-04-16T02:42:14;27.63;;;15.60;;
20421;SDS011;10370;53.102;18.034;2023-04-16T02:47:39;26.27;;;14.68;;
20421;SDS011;10370;53.102;18.034;2023-04-16T02:53:04;24.83;;;15.10;;
20421;SDS011;10370;53.102;18.034;2023-04-16T02:58:29;26.55;;;15.43;;
20421;SDS011;10370;53.102;18.034;2023-04-16T03:03:54;28.30;;;15.00;;
20421;SDS011;10370;53.102;18.034;2023-04-16T03:09:17;26.67;;;15.77;;
20421;SDS011;10370;53.102;18.034;2023-04-16T03:14:42;28.58;;;15.63;;
20421;SDS011;10370;53.102;18.034;2023-04-16T03:20:07;28.70;;;17.17;;
20421;SDS011;10370;53.102;18.034;2023-04-16T03:25:32;29.33;;;17.25;;
20421;SDS011;10370;53.102;18.034;2023-04-16T03:30:58;30.00;;;17.30;;
20421;SDS011;10370;53.102;18.034;2023-04-16T03:36:19;34.45;;;17.85;;
20421;SDS011;10370;53.102;18.034;2023-04-16T03:41:40;31.75;;;17.85;;
20421;SDS011;10370;53.102;18.034;2023-04-16T03:47:03;33.30;;;17.67;;
20421;SDS011;10370;53.102;18.034;2023-04-16T03:52:26;34.45;;;18.35;;
20421;SDS011;10370;53.102;18.034;2023-04-16T03:57:51;31.33;;;17.48;;
20421;SDS011;10370;53.102;18.034;2023-04-16T04:03:12;33.67;;;17.60;;
20421;SDS011;10370;53.102;18.034;2023-04-16T04:08:39;32.65;;;18.67;;
20421;SDS011;10370;53.102;18.034;2023-04-16T04:14:04;33.92;;;17.40;;
20421;SDS011;10370;53.102;18.034;2023-04-16T04:19:25;34.30;;;18.88;;
20421;SDS011;10370;53.102;18.034;2023-04-16T04:24:46;34.38;;;17.85;;
20421;SDS011;10370;53.102;18.034;2023-04-16T04:30:10;34.03;;;17.98;;
20421;SDS011;10370;53.102;18.034;2023-04-16T04:35:31;33.35;;;18.00;;
20421;SDS011;10370;53.102;18.034;2023-04-16T04:40:53;34.70;;;18.27;;
20421;SDS011;10370;53.102;18.034;2023-04-16T04:46:15;33.58;;;17.77;;
20421;SDS011;10370;53.102;18.034;2023-04-16T04:51:38;33.38;;;17.92;;
20421;SDS011;10370;53.102;18.034;2023-04-16T04:57:01;33.03;;;16.98;;
20421;SDS011;10370;53.102;18.034;2023-04-16T05:02:25;34.08;;;17.85;;
20421;SDS011;10370;53.102;18.034;2023-04-16T05:07:50;38.42;;;17.25;;
20421;SDS011;10370;53.102;18.034;2023-04-16T05:13:13;32.08;;;16.70;;
20421;SDS011;10370;53.102;18.034;2023-04-16T05:18:36;37.55;;;19.52;;
20421;SDS011;10370;53.102;18.034;2023-04-16T05:23:59;32.08;;;16.80;;
20421;SDS011;10370;53.102;18.034;2023-04-16T05:29:22;29.88;;;15.30;;
20421;SDS011;10370;53.102;18.034;2023-04-16T05:34:46;25.90;;;15.23;;
20421;SDS011;10370;53.102;18.034;2023-04-16T05:40:10;28.92;;;15.45;;
20421;SDS011;10370;53.102;18.034;2023-04-16T05:45:38;32.40;;;16.77;;
20421;SDS011;10370;53.102;18.034;2023-04-16T05:51:02;31.80;;;16.38;;
20421;SDS011;10370;53.102;18.034;2023-04-16T05:56:34;29.73;;;15.48;;
20421;SDS011;10370;53.102;18.034;2023-04-16T06:01:57;31.27;;;16.33;;
20421;SDS011;10370;53.102;18.034;2023-04-16T06:07:20;33.00;;;16.90;;
20421;SDS011;10370;53.102;18.034;2023-04-16T06:12:45;32.05;;;16.60;;
20421;SDS011;10370;53.102;18.034;2023-04-16T06:18:06;28.48;;;15.15;;
20421;SDS011;10370;53.102;18.034;2023-04-16T06:23:28;30.90;;;15.60;;
20421;SDS011;10370;53.102;18.034;2023-04-16T06:28:49;30.42;;;14.88;;
20421;SDS011;10370;53.102;18.034;2023-04-16T06:34:10;33.05;;;15.75;;
20421;SDS011;10370;53.102;18.034;2023-04-16T06:39:35;34.90;;;15.68;;
20421;SDS011;10370;53.102;18.034;2023-04-16T06:45:00;37.40;;;16.63;;
20421;SDS011;10370;53.102;18.034;2023-04-16T06:50:31;34.10;;;16.60;;
20421;SDS011;10370;53.102;18.034;2023-04-16T06:55:57;34.58;;;16.73;;
20421;SDS011;10370;53.102;18.034;2023-04-16T07:01:19;40.28;;;19.50;;
20421;SDS011;10370;53.102;18.034;2023-04-16T07:06:43;37.63;;;17.95;;
20421;SDS011;10370;53.102;18.034;2023-04-16T07:12:08;36.78;;;17.80;;
20421;SDS011;10370;53.102;18.034;2023-04-16T07:17:32;38.67;;;17.85;;
20421;SDS011;10370;53.102;18.034;2023-04-16T07:22:53;38.80;;;18.58;;
20421;SDS011;10370;53.102;18.034;2023-04-16T07:28:14;36.83;;;18.95;;
20421;SDS011;10370;53.102;18.034;2023-04-16T07:33:38;37.63;;;17.92;;
20421;SDS011;10370;53.102;18.034;2023-04-16T07:38:59;37.28;;;17.10;;
20421;SDS011;10370;53.102;18.034;2023-04-16T07:44:23;36.20;;;16.80;;
20421;SDS011;10370;53.102;18.034;2023-04-16T07:49:47;37.00;;;16.80;;
20421;SDS011;10370;53.102;18.034;2023-04-16T07:55:11;36.47;;;16.38;;
20421;SDS011;10370;53.102;18.034;2023-04-16T08:00:34;29.83;;;15.48;;
20421;SDS011;10370;53.102;18.034;2023-04-16T08:05:55;29.83;;;15.15;;
20421;SDS011;10370;53.102;18.034;2023-04-16T08:11:20;33.88;;;15.60;;
20421;SDS011;10370;53.102;18.034;2023-04-16T08:16:45;34.67;;;16.35;;
20421;SDS011;10370;53.102;18.034;2023-04-16T08:22:06;35.30;;;16.67;;
20421;SDS011;10370;53.102;18.034;2023-04-16T08:27:30;39.78;;;17.05;;
20421;SDS011;10370;53.102;18.034;2023-04-16T08:32:53;35.00;;;16.58;;
20421;SDS011;10370;53.102;18.034;2023-04-16T08:38:14;38.45;;;17.27;;
20421;SDS011;10370;53.102;18.034;2023-04-16T08:43:38;36.03;;;16.75;;
20421;SDS011;10370;53.102;18.034;2023-04-16T08:49:06;34.97;;;16.63;;
20421;SDS011;10370;53.102;18.034;2023-04-16T08:54:38;41.28;;;18.10;;
20421;SDS011;10370;53.102;18.034;2023-04-16T09:00:21;33.90;;;16.98;;
20421;SDS011;10370;53.102;18.034;2023-04-16T09:05:45;32.50;;;15.05;;
20421;SDS011;10370;53.102;18.034;2023-04-16T09:11:12;35.40;;;15.75;;
20421;SDS011;10370;53.102;18.034;2023-04-16T09:16:41;32.95;;;15.18;;
20421;SDS011;10370;53.102;18.034;2023-04-16T09:22:08;32.00;;;14.02;;
20421;SDS011;10370;53.102;18.034;2023-04-16T09:27:34;31.10;;;16.00;;
20421;SDS011;10370;53.102;18.034;2023-04-16T09:33:12;31.63;;;15.60;;
20421;SDS011;10370;53.102;18.034;2023-04-16T09:38:46;31.27;;;14.75;;
20421;SDS011;10370;53.102;18.034;2023-04-16T09:44:15;33.03;;;15.45;;
20421;SDS011;10370;53.102;18.034;2023-04-16T09:49:41;30.25;;;14.60;;
20421;SDS011;10370;53.102;18.034;2023-04-16T09:55:06;29.67;;;14.88;;
20421;SDS011;10370;53.102;18.034;2023-04-16T10:00:32;27.83;;;13.40;;
20421;SDS011;10370;53.102;18.034;2023-04-16T10:05:58;24.52;;;12.35;;
20421;SDS011;10370;53.102;18.034;2023-04-16T10:11:38;25.45;;;13.48;;
20421;SDS011;10370;53.102;18.034;2023-04-16T10:17:04;26.17;;;13.50;;
20421;SDS011;10370;53.102;18.034;2023-04-16T10:22:28;24.13;;;12.88;;
20421;SDS011;10370;53.102;18.034;2023-04-16T10:27:51;27.30;;;13.05;;
20421;SDS011;10370;53.102;18.034;2023-04-16T10:33:12;28.92;;;13.20;;
20421;SDS011;10370;53.102;18.034;2023-04-16T10:38:39;27.52;;;12.20;;
20421;SDS011;10370;53.102;18.034;2023-04-16T10:44:09;25.98;;;11.55;;
20421;SDS011;10370;53.102;18.034;2023-04-16T10:49:33;26.42;;;11.60;;
20421;SDS011;10370;53.102;18.034;2023-04-16T10:54:55;23.05;;;10.45;;
20421;SDS011;10370;53.102;18.034;2023-04-16T11:00:21;26.15;;;10.48;;
20421;SDS011;10370;53.102;18.034;2023-04-16T11:05:46;19.83;;;10.05;;
20421;SDS011;10370;53.102;18.034;2023-04-16T11:11:06;19.83;;;9.57;;
20421;SDS011;10370;53.102;18.034;2023-04-16T11:16:30;21.80;;;9.88;;
20421;SDS011;10370;53.102;18.034;2023-04-16T11:21:53;15.70;;;8.90;;
20421;SDS011;10370;53.102;18.034;2023-04-16T11:27:15;18.52;;;10.40;;
20421;SDS011;10370;53.102;18.034;2023-04-16T11:32:36;22.73;;;11.80;;
20421;SDS011;10370;53.102;18.034;2023-04-16T11:38:01;19.95;;;11.05;;
20421;SDS011;10370;53.102;18.034;2023-04-16T11:43:30;20.02;;;10.15;;
20421;SDS011;10370;53.102;18.034;2023-04-16T11:48:52;22.35;;;11.75;;
20421;SDS011;10370;53.102;18.034;2023-04-16T11:54:20;21.45;;;11.38;;
20421;SDS011;10370;53.102;18.034;2023-04-16T11:59:45;20.15;;;10.65;;
20421;SDS011;10370;53.102;18.034;2023-04-16T12:05:25;24.10;;;12.65;;
20421;SDS011;10370;53.102;18.034;2023-04-16T12:10:53;25.85;;;12.82;;
20421;SDS011;10370;53.102;18.034;2023-04-16T12:16:19;25.55;;;12.25;;
20421;SDS011;10370;53.102;18.034;2023-04-16T12:21:46;21.33;;;11.27;;
20421;SDS011;10370;53.102;18.034;2023-04-16T12:27:10;27.10;;;13.07;;
20421;SDS011;10370;53.102;18.034;2023-04-16T12:32:38;26.55;;;11.40;;
20421;SDS011;10370;53.102;18.034;2023-04-16T12:37:59;25.33;;;12.45;;
20421;SDS011;10370;53.102;18.034;2023-04-16T12:43:25;28.98;;;12.98;;
20421;SDS011;10370;53.102;18.034;2023-04-16T12:48:48;29.52;;;13.23;;
20421;SDS011;10370;53.102;18.034;2023-04-16T12:54:13;24.35;;;10.90;;
20421;SDS011;10370;53.102;18.034;2023-04-16T12:59:37;26.83;;;11.77;;
20421;SDS011;10370;53.102;18.034;2023-04-16T13:05:02;22.75;;;13.10;;
20421;SDS011;10370;53.102;18.034;2023-04-16T13:10:28;25.77;;;11.98;;
20421;SDS011;10370;53.102;18.034;2023-04-16T13:15:52;31.05;;;13.07;;
20421;SDS011;10370;53.102;18.034;2023-04-16T13:21:14;29.63;;;13.65;;
20421;SDS011;10370;53.102;18.034;2023-04-16T13:26:36;30.25;;;13.88;;
20421;SDS011;10370;53.102;18.034;2023-04-16T13:31:59;30.55;;;13.85;;
20421;SDS011;10370;53.102;18.034;2023-04-16T13:37:22;27.02;;;13.70;;
20421;SDS011;10370;53.102;18.034;2023-04-16T13:42:47;29.27;;;13.48;;
20421;SDS011;10370;53.102;18.034;2023-04-16T13:48:09;29.27;;;14.18;;
20421;SDS011;10370;53.102;18.034;2023-04-16T13:53:32;31.63;;;13.77;;
20421;SDS011;10370;53.102;18.034;2023-04-16T13:58:56;32.17;;;13.55;;
20421;SDS011;10370;53.102;18.034;2023-04-16T14:04:17;26.00;;;13.65;;
20421;SDS011;10370;53.102;18.034;2023-04-16T14:09:43;27.92;;;14.07;;
20421;SDS011;10370;53.102;18.034;2023-04-16T14:15:08;25.17;;;13.07;;
20421;SDS011;10370;53.102;18.034;2023-04-16T14:20:35;25.83;;;14.05;;
20421;SDS011;10370;53.102;18.034;2023-04-16T14:26:01;36.67;;;16.63;;
20421;SDS011;10370;53.102;18.034;2023-04-16T14:31:26;26.15;;;13.35;;
20421;SDS011;10370;53.102;18.034;2023-04-16T14:36:49;26.88;;;12.32;;
20421;SDS011;10370;53.102;18.034;2023-04-16T14:42:14;27.77;;;11.95;;
20421;SDS011;10370;53.102;18.034;2023-04-16T14:47:40;23.60;;;11.77;;
20421;SDS011;10370;53.102;18.034;2023-04-16T14:53:05;26.58;;;12.60;;
20421;SDS011;10370;53.102;18.034;2023-04-16T14:58:29;27.48;;;12.52;;
20421;SDS011;10370;53.102;18.034;2023-04-16T15:03:55;30.60;;;13.05;;
20421;SDS011;10370;53.102;18.034;2023-04-16T15:09:18;17.15;;;10.30;;
20421;SDS011;10370;53.102;18.034;2023-04-16T15:14:43;16.20;;;9.65;;
20421;SDS011;10370;53.102;18.034;2023-04-16T15:20:08;14.52;;;8.60;;
20421;SDS011;10370;53.102;18.034;2023-04-16T15:25:34;35.10;;;15.48;;
20421;SDS011;10370;53.102;18.034;2023-04-16T15:30:55;30.85;;;12.90;;
20421;SDS011;10370;53.102;18.034;2023-04-16T15:36:19;19.20;;;10.70;;
20421;SDS011;10370;53.102;18.034;2023-04-16T15:41:43;21.40;;;10.02;;
20421;SDS011;10370;53.102;18.034;2023-04-16T15:47:19;15.82;;;8.98;;
20421;SDS011;10370;53.102;18.034;2023-04-16T15:52:43;12.65;;;8.27;;
20421;SDS011;10370;53.102;18.034;2023-04-16T15:58:07;14.60;;;9.18;;
20421;SDS011;10370;53.102;18.034;2023-04-16T16:03:34;23.98;;;12.00;;
20421;SDS011;10370;53.102;18.034;2023-04-16T16:08:55;16.02;;;9.80;;
20421;SDS011;10370;53.102;18.034;2023-04-16T16:14:19;27.77;;;14.80;;
20421;SDS011;10370;53.102;18.034;2023-04-16T16:19:43;19.02;;;9.90;;
20421;SDS011;10370;53.102;18.034;2023-04-16T16:25:06;16.70;;;9.98;;
20421;SDS011;10370;53.102;18.034;2023-04-16T16:30:29;16.52;;;9.88;;
20421;SDS011;10370;53.102;18.034;2023-04-16T16:35:53;17.88;;;9.68;;
20421;SDS011;10370;53.102;18.034;2023-04-16T16:41:14;15.02;;;9.32;;
20421;SDS011;10370;53.102;18.034;2023-04-16T16:46:35;38.28;;;16.25;;
20421;SDS011;10370;53.102;18.034;2023-04-16T16:51:59;24.67;;;12.73;;
20421;SDS011;10370;53.102;18.034;2023-04-16T16:57:20;18.92;;;9.60;;
20421;SDS011;10370;53.102;18.034;2023-04-16T17:02:43;22.23;;;11.52;;
20421;SDS011;10370;53.102;18.034;2023-04-16T17:08:04;16.33;;;9.15;;
20421;SDS011;10370;53.102;18.034;2023-04-16T17:13:31;17.95;;;9.43;;
20421;SDS011;10370;53.102;18.034;2023-04-16T17:18:56;19.15;;;11.25;;
20421;SDS011;10370;53.102;18.034;2023-04-16T17:24:22;39.83;;;17.42;;
20421;SDS011;10370;53.102;18.034;2023-04-16T17:29:47;16.33;;;9.77;;
20421;SDS011;10370;53.102;18.034;2023-04-16T17:35:13;15.05;;;8.75;;
20421;SDS011;10370;53.102;18.034;2023-04-16T17:40:38;20.60;;;11.18;;
20421;SDS011;10370;53.102;18.034;2023-04-16T17:46:03;23.90;;;12.13;;
20421;SDS011;10370;53.102;18.034;2023-04-16T17:51:29;13.10;;;8.57;;
20421;SDS011;10370;53.102;18.034;2023-04-16T17:56:55;17.33;;;8.43;;
20421;SDS011;10370;53.102;18.034;2023-04-16T18:02:20;17.75;;;9.73;;
20421;SDS011;10370;53.102;18.034;2023-04-16T18:07:46;15.48;;;9.40;;
20421;SDS011;10370;53.102;18.034;2023-04-16T18:13:07;18.30;;;10.02;;
20421;SDS011;10370;53.102;18.034;2023-04-16T18:18:31;16.40;;;9.60;;
20421;SDS011;10370;53.102;18.034;2023-04-16T18:23:52;18.38;;;10.82;;
20421;SDS011;10370;53.102;18.034;2023-04-16T18:29:13;16.52;;;10.75;;
20421;SDS011;10370;53.102;18.034;2023-04-16T18:34:36;18.38;;;10.77;;
20421;SDS011;10370;53.102;18.034;2023-04-16T18:40:01;16.65;;;10.88;;
20421;SDS011;10370;53.102;18.034;2023-04-16T18:45:29;14.32;;;9.68;;
20421;SDS011;10370;53.102;18.034;2023-04-16T18:50:59;14.20;;;9.50;;
20421;SDS011;10370;53.102;18.034;2023-04-16T18:56:21;14.40;;;9.90;;
20421;SDS011;10370;53.102;18.034;2023-04-16T19:01:44;15.90;;;8.77;;
20421;SDS011;10370;53.102;18.034;2023-04-16T19:07:06;15.80;;;10.00;;
20421;SDS011;10370;53.102;18.034;2023-04-16T19:12:29;17.25;;;9.80;;
20421;SDS011;10370;53.102;18.034;2023-04-16T19:17:56;14.57;;;9.98;;
20421;SDS011;10370;53.102;18.034;2023-04-16T19:23:22;15.15;;;10.00;;
20421;SDS011;10370;53.102;18.034;2023-04-16T19:28:47;15.68;;;10.13;;
20421;SDS011;10370;53.102;18.034;2023-04-16T19:34:14;15.85;;;11.00;;
20421;SDS011;10370;53.102;18.034;2023-04-16T19:39:43;17.48;;;10.25;;
20421;SDS011;10370;53.102;18.034;2023-04-16T19:45:07;17.88;;;10.35;;
20421;SDS011;10370;53.102;18.034;2023-04-16T19:50:32;15.18;;;10.38;;
20421;SDS011;10370;53.102;18.034;2023-04-16T19:56:03;16.33;;;10.50;;
20421;SDS011;10370;53.102;18.034;2023-04-16T20:01:29;18.35;;;11.02;;
20421;SDS011;10370;53.102;18.034;2023-04-16T20:06:55;15.48;;;10.25;;
20421;SDS011;10370;53.102;18.034;2023-04-16T20:12:19;15.88;;;9.25;;
20421;SDS011;10370;53.102;18.034;2023-04-16T20:17:46;13.52;;;8.57;;
20421;SDS011;10370;53.102;18.034;2023-04-16T20:23:12;13.43;;;8.90;;
20421;SDS011;10370;53.102;18.034;2023-04-16T20:28:33;15.48;;;9.57;;
20421;SDS011;10370;53.102;18.034;2023-04-16T20:33:58;13.98;;;8.35;;
20421;SDS011;10370;53.102;18.034;2023-04-16T20:39:20;11.52;;;8.27;;
20421;SDS011;10370;53.102;18.034;2023-04-16T20:44:45;12.10;;;8.13;;
20421;SDS011;10370;53.102;18.034;2023-04-16T20:50:17;11.70;;;8.25;;
20421;SDS011;10370;53.102;18.034;2023-04-16T20:55:43;11.43;;;8.15;;
20421;SDS011;10370;53.102;18.034;2023-04-16T21:01:04;12.30;;;8.35;;
20421;SDS011;10370;53.102;18.034;2023-04-16T21:06:29;13.63;;;8.68;;
20421;SDS011;10370;53.102;18.034;2023-04-16T21:12:00;11.00;;;7.45;;
20421;SDS011;10370;53.102;18.034;2023-04-16T21:17:25;14.43;;;9.10;;
20421;SDS011;10370;53.102;18.034;2023-04-16T21:22:50;12.45;;;8.77;;
20421;SDS011;10370;53.102;18.034;2023-04-16T21:28:17;12.23;;;8.25;;
20421;SDS011;10370;53.102;18.034;2023-04-16T21:33:42;16.42;;;8.27;;
20421;SDS011;10370;53.102;18.034;2023-04-16T21:39:07;14.38;;;9.00;;
20421;SDS011;10370;53.102;18.034;2023-04-16T21:44:35;13.27;;;8.77;;
20421;SDS011;10370;53.102;18.034;2023-04-16T21:50:01;13.95;;;9.15;;
20421;SDS011;10370;53.102;18.034;2023-04-16T21:55:25;14.60;;;8.88;;
20421;SDS011;10370;53.102;18.034;2023-04-16T22:00:49;14.35;;;9.25;;
20421;SDS011;10370;53.102;18.034;2023-04-16T22:06:14;14.10;;;9.10;;
20421;SDS011;10370;53.102;18.034;2023-04-16T22:11:37;15.38;;;9.52;;
20421;SDS011;10370;53.102;18.034;2023-04-16T22:17:03;14.38;;;9.45;;
20421;SDS011;10370;53.102;18.034;2023-04-16T22:22:28;14.90;;;9.98;;
20421;SDS011;10370;53.102;18.034;2023-04-16T22:27:52;16.02;;;10.10;;
20421;SDS011;10370;53.102;18.034;2023-04-16T22:33:19;16.95;;;10.13;;
20421;SDS011;10370;53.102;18.034;2023-04-16T22:38:44;16.45;;;9.25;;
20421;SDS011;10370;53.102;18.034;2023-04-16T22:44:10;16.45;;;10.13;;
20421;SDS011;10370;53.102;18.034;2023-04-16T22:49:35;16.85;;;10.40;;
20421;SDS011;10370;53.102;18.034;2023-04-16T22:55:00;17.95;;;10.38;;
20421;SDS011;10370;53.102;18.034;2023-04-16T23:00:26;18.17;;;10.77;;
20421;SDS011;10370;53.102;18.034;2023-04-16T23:05:51;19.33;;;11.00;;
20421;SDS011;10370;53.102;18.034;2023-04-16T23:11:16;22.15;;;11.27;;
20421;SDS011;10370;53.102;18.034;2023-04-16T23:16:43;21.50;;;12.80;;
20421;SDS011;10370;53.102;18.034;2023-04-16T23:22:08;19.65;;;12.23;;
20421;SDS011;10370;53.102;18.034;2023-04-16T23:27:34;20.98;;;11.80;;
20421;SDS011;10370;53.102;18.034;2023-04-16T23:32:58;21.05;;;12.27;;
20421;SDS011;10370;53.102;18.034;2023-04-16T23:38:24;25.48;;;13.68;;
20421;SDS011;10370;53.102;18.034;2023-04-16T23:43:49;22.40;;;13.55;;
20421;SDS011;10370;53.102;18.034;2023-04-16T23:49:14;25.08;;;13.55;;
20421;SDS011;10370;53.102;18.034;2023-04-16T23:54:40;26.17;;;15.07;;
